sensor_id;sensor_type;location;lat;lon;timestamp;pressure;altitude;pressure_sealevel;temperature;humidity
11339;BME280;5724;42.684;23.252;2022-08-14T00:00:46;93840.66;;;16.53;100.00
11339;BME280;5724;42.684;23.252;2022-08-14T00:03:38;93842.75;;;16.42;100.00
11339;BME280;5724;42.684;23.252;2022-08-14T00:06:04;93832.97;;;16.30;100.00
11339;BME280;5724;42.684;23.252;2022-08-14T00:08:30;93836.81;;;16.40;100.00
11339;BME280;5724;42.684;23.252;2022-08-14T00:10:56;93836.75;;;16.51;100.00
11339;BME280;5724;42.684;23.252;2022-08-14T00:13:23;93832.75;;;16.55;100.00
11339;BME280;5724;42.684;23.252;2022-08-14T00:15:53;93822.19;;;16.50;100.00
11339;BME280;5724;42.684;23.252;2022-08-14T00:18:21;93822.56;;;16.49;100.00
11339;BME280;5724;42.684;23.252;2022-08-14T00:20:48;93826.47;;;16.55;100.00
11339;BME280;5724;42.684;23.252;2022-08-14T00:23:15;93813.91;;;16.50;100.00
11339;BME280;5724;42.684;23.252;2022-08-14T00:25:42;93821.06;;;16.44;100.00
11339;BME280;5724;42.684;23.252;2022-08-14T00:28:12;93833.69;;;16.42;100.00
11339;BME280;5724;42.684;23.252;2022-08-14T00:30:39;93829.00;;;16.35;100.00
11339;BME280;5724;42.684;23.252;2022-08-14T00:33:05;93825.41;;;16.42;100.00
11339;BME280;5724;42.684;23.252;2022-08-14T00:35:31;93829.06;;;16.31;100.00
11339;BME280;5724;42.684;23.252;2022-08-14T00:37:57;93833.78;;;16.31;100.00
11339;BME280;5724;42.684;23.252;2022-08-14T00:40:22;93826.56;;;16.44;100.00
11339;BME280;5724;42.684;23.252;2022-08-14T00:42:48;93823.03;;;16.44;100.00
11339;BME280;5724;42.684;23.252;2022-08-14T00:45:15;93823.41;;;16.46;100.00
11339;BME280;5724;42.684;23.252;2022-08-14T00:47:43;93823.28;;;16.56;100.00
11339;BME280;5724;42.684;23.252;2022-08-14T00:50:11;93817.78;;;16.56;100.00
11339;BME280;5724;42.684;23.252;2022-08-14T00:52:37;93823.34;;;16.53;100.00
11339;BME280;5724;42.684;23.252;2022-08-14T00:55:05;93812.19;;;16.64;100.00
11339;BME280;5724;42.684;23.252;2022-08-14T00:57:33;93814.94;;;16.64;100.00
11339;BME280;5724;42.684;23.252;2022-08-14T00:59:59;93814.53;;;16.65;100.00
11339;BME280;5724;42.684;23.252;2022-08-14T01:02:26;93811.44;;;16.59;100.00
11339;BME280;5724;42.684;23.252;2022-08-14T01:04:57;93817.28;;;16.65;100.00
11339;BME280;5724;42.684;23.252;2022-08-14T01:07:24;93805.84;;;16.67;100.00
11339;BME280;5724;42.684;23.252;2022-08-14T01:09:55;93807.03;;;16.66;100.00
11339;BME280;5724;42.684;23.252;2022-08-14T01:12:23;93798.41;;;16.64;100.00
11339;BME280;5724;42.684;23.252;2022-08-14T01:14:49;93794.81;;;16.67;100.00
11339;BME280;5724;42.684;23.252;2022-08-14T01:17:18;93787.69;;;16.73;100.00
11339;BME280;5724;42.684;23.252;2022-08-14T01:19:43;93771.19;;;16.66;100.00
11339;BME280;5724;42.684;23.252;2022-08-14T01:22:28;93778.31;;;16.63;100.00
11339;BME280;5724;42.684;23.252;2022-08-14T01:24:54;93783.16;;;16.52;100.00
11339;BME280;5724;42.684;23.252;2022-08-14T01:27:21;93783.66;;;16.43;100.00
11339;BME280;5724;42.684;23.252;2022-08-14T01:29:50;93784.25;;;16.20;100.00
11339;BME280;5724;42.684;23.252;2022-08-14T01:32:17;93793.38;;;16.10;100.00
11339;BME280;5724;42.684;23.252;2022-08-14T01:34:47;93791.47;;;16.07;100.00
11339;BME280;5724;42.684;23.252;2022-08-14T01:37:13;93798.91;;;16.10;100.00
11339;BME280;5724;42.684;23.252;2022-08-14T01:39:38;93793.13;;;15.97;100.00
11339;BME280;5724;42.684;23.252;2022-08-14T01:42:05;93796.16;;;16.10;100.00
11339;BME280;5724;42.684;23.252;2022-08-14T01:44:31;93791.41;;;16.11;100.00
11339;BME280;5724;42.684;23.252;2022-08-14T01:46:57;93788.50;;;16.28;100.00
11339;BME280;5724;42.684;23.252;2022-08-14T01:49:24;93787.75;;;16.24;100.00
11339;BME280;5724;42.684;23.252;2022-08-14T01:51:50;93798.44;;;16.19;100.00
11339;BME280;5724;42.684;23.252;2022-08-14T01:54:22;93777.22;;;16.16;100.00
11339;BME280;5724;42.684;23.252;2022-08-14T01:56:53;93788.97;;;16.20;100.00
11339;BME280;5724;42.684;23.252;2022-08-14T02:01:51;93773.19;;;16.24;100.00
11339;BME280;5724;42.684;23.252;2022-08-14T02:04:20;93775.59;;;16.22;100.00
11339;BME280;5724;42.684;23.252;2022-08-14T02:06:48;93784.44;;;16.02;100.00
11339;BME280;5724;42.684;23.252;2022-08-14T02:09:18;93786.00;;;16.00;100.00
11339;BME280;5724;42.684;23.252;2022-08-14T02:11:44;93788.34;;;16.05;100.00
11339;BME280;5724;42.684;23.252;2022-08-14T02:14:11;93792.66;;;16.06;100.00
11339;BME280;5724;42.684;23.252;2022-08-14T02:16:55;93784.56;;;15.85;100.00
11339;BME280;5724;42.684;23.252;2022-08-14T02:19:23;93780.41;;;15.59;100.00
11339;BME280;5724;42.684;23.252;2022-08-14T02:21:52;93784.66;;;15.70;100.00
11339;BME280;5724;42.684;23.252;2022-08-14T02:24:24;93784.97;;;15.83;100.00
11339;BME280;5724;42.684;23.252;2022-08-14T02:26:51;93777.03;;;15.89;100.00
11339;BME280;5724;42.684;23.252;2022-08-14T02:29:20;93781.31;;;15.97;100.00
11339;BME280;5724;42.684;23.252;2022-08-14T02:31:54;93791.56;;;15.96;100.00
11339;BME280;5724;42.684;23.252;2022-08-14T02:34:24;93767.53;;;15.97;100.00
11339;BME280;5724;42.684;23.252;2022-08-14T02:36:56;93772.63;;;16.02;100.00
11339;BME280;5724;42.684;23.252;2022-08-14T02:39:24;93770.56;;;16.10;100.00
11339;BME280;5724;42.684;23.252;2022-08-14T02:41:50;93766.69;;;16.03;100.00
11339;BME280;5724;42.684;23.252;2022-08-14T02:44:17;93778.09;;;16.06;100.00
11339;BME280;5724;42.684;23.252;2022-08-14T02:46:46;93774.09;;;16.10;100.00
11339;BME280;5724;42.684;23.252;2022-08-14T02:49:12;93764.69;;;16.08;100.00
11339;BME280;5724;42.684;23.252;2022-08-14T02:51:37;93773.41;;;16.02;100.00
11339;BME280;5724;42.684;23.252;2022-08-14T02:54:07;93751.44;;;15.92;100.00
11339;BME280;5724;42.684;23.252;2022-08-14T02:56:34;93767.53;;;15.97;100.00
11339;BME280;5724;42.684;23.252;2022-08-14T02:59:03;93770.16;;;16.11;100.00
11339;BME280;5724;42.684;23.252;2022-08-14T03:01:31;93775.69;;;16.08;100.00
11339;BME280;5724;42.684;23.252;2022-08-14T03:03:58;93776.53;;;16.05;100.00
11339;BME280;5724;42.684;23.252;2022-08-14T03:06:24;93781.78;;;15.88;100.00
11339;BME280;5724;42.684;23.252;2022-08-14T03:08:50;93777.50;;;15.80;100.00
11339;BME280;5724;42.684;23.252;2022-08-14T03:11:17;93778.66;;;15.86;100.00
11339;BME280;5724;42.684;23.252;2022-08-14T03:13:45;93773.56;;;15.81;100.00
11339;BME280;5724;42.684;23.252;2022-08-14T03:16:14;93770.09;;;15.73;100.00
11339;BME280;5724;42.684;23.252;2022-08-14T03:18:41;93772.81;;;15.77;100.00
11339;BME280;5724;42.684;23.252;2022-08-14T03:21:09;93771.94;;;15.87;100.00
11339;BME280;5724;42.684;23.252;2022-08-14T03:23:39;93779.00;;;15.88;100.00
11339;BME280;5724;42.684;23.252;2022-08-14T03:26:10;93790.00;;;15.92;100.00
11339;BME280;5724;42.684;23.252;2022-08-14T03:28:37;93764.09;;;15.86;100.00
11339;BME280;5724;42.684;23.252;2022-08-14T03:31:07;93785.34;;;15.85;100.00
11339;BME280;5724;42.684;23.252;2022-08-14T03:33:35;93790.81;;;15.92;100.00
11339;BME280;5724;42.684;23.252;2022-08-14T03:36:12;93796.13;;;15.65;100.00
11339;BME280;5724;42.684;23.252;2022-08-14T03:38:41;93796.13;;;15.62;100.00
11339;BME280;5724;42.684;23.252;2022-08-14T03:41:27;93794.16;;;15.59;100.00
11339;BME280;5724;42.684;23.252;2022-08-14T03:43:58;93794.19;;;15.52;100.00
11339;BME280;5724;42.684;23.252;2022-08-14T03:46:26;93792.19;;;15.63;100.00
11339;BME280;5724;42.684;23.252;2022-08-14T03:48:53;93792.56;;;15.68;100.00
11339;BME280;5724;42.684;23.252;2022-08-14T03:51:20;93796.50;;;15.67;100.00
11339;BME280;5724;42.684;23.252;2022-08-14T03:53:47;93788.63;;;15.66;100.00
11339;BME280;5724;42.684;23.252;2022-08-14T03:56:15;93790.19;;;15.67;100.00
11339;BME280;5724;42.684;23.252;2022-08-14T03:58:46;93785.47;;;15.67;100.00
11339;BME280;5724;42.684;23.252;2022-08-14T04:01:16;93775.28;;;15.57;100.00
11339;BME280;5724;42.684;23.252;2022-08-14T04:03:44;93785.06;;;15.69;100.00
11339;BME280;5724;42.684;23.252;2022-08-14T04:06:10;93770.56;;;15.65;100.00
11339;BME280;5724;42.684;23.252;2022-08-14T04:08:37;93782.28;;;15.76;100.00
11339;BME280;5724;42.684;23.252;2022-08-14T04:11:05;93783.78;;;15.81;100.00
11339;BME280;5724;42.684;23.252;2022-08-14T04:13:32;93791.22;;;15.87;100.00
11339;BME280;5724;42.684;23.252;2022-08-14T04:16:04;93794.72;;;15.91;100.00
11339;BME280;5724;42.684;23.252;2022-08-14T04:18:30;93804.09;;;16.05;100.00
11339;BME280;5724;42.684;23.252;2022-08-14T04:20:56;93791.09;;;16.05;100.00
11339;BME280;5724;42.684;23.252;2022-08-14T04:23:23;93803.16;;;16.18;100.00
11339;BME280;5724;42.684;23.252;2022-08-14T04:25:49;93782.25;;;16.21;100.00
11339;BME280;5724;42.684;23.252;2022-08-14T04:28:18;93797.53;;;16.33;100.00
11339;BME280;5724;42.684;23.252;2022-08-14T04:30:44;93791.53;;;16.41;100.00
11339;BME280;5724;42.684;23.252;2022-08-14T04:33:10;93785.28;;;16.37;100.00
11339;BME280;5724;42.684;23.252;2022-08-14T04:35:36;93792.34;;;16.38;100.00
11339;BME280;5724;42.684;23.252;2022-08-14T04:38:09;93797.38;;;16.47;100.00
11339;BME280;5724;42.684;23.252;2022-08-14T04:41:09;93800.91;;;16.47;100.00
11339;BME280;5724;42.684;23.252;2022-08-14T04:43:54;93795.16;;;16.35;100.00
11339;BME280;5724;42.684;23.252;2022-08-14T04:46:21;93795.44;;;16.44;100.00
11339;BME280;5724;42.684;23.252;2022-08-14T04:48:48;93802.34;;;16.63;100.00
11339;BME280;5724;42.684;23.252;2022-08-14T04:51:16;93805.53;;;16.57;100.00
11339;BME280;5724;42.684;23.252;2022-08-14T04:53:44;93796.56;;;16.50;100.00
11339;BME280;5724;42.684;23.252;2022-08-14T04:56:11;93791.81;;;16.54;100.00
11339;BME280;5724;42.684;23.252;2022-08-14T04:58:38;93786.28;;;16.54;100.00
11339;BME280;5724;42.684;23.252;2022-08-14T05:01:06;93792.94;;;16.56;100.00
11339;BME280;5724;42.684;23.252;2022-08-14T05:03:34;93792.47;;;16.65;100.00
11339;BME280;5724;42.684;23.252;2022-08-14T05:06:03;93784.50;;;16.74;100.00
11339;BME280;5724;42.684;23.252;2022-08-14T05:08:29;93782.91;;;16.77;100.00
11339;BME280;5724;42.684;23.252;2022-08-14T05:10:59;93789.84;;;16.92;100.00
11339;BME280;5724;42.684;23.252;2022-08-14T05:13:27;93786.47;;;17.08;100.00
11339;BME280;5724;42.684;23.252;2022-08-14T05:15:54;93780.06;;;17.18;100.00
11339;BME280;5724;42.684;23.252;2022-08-14T05:18:24;93782.00;;;17.17;99.71
11339;BME280;5724;42.684;23.252;2022-08-14T05:20:52;93791.75;;;17.26;98.99
11339;BME280;5724;42.684;23.252;2022-08-14T05:23:23;93797.63;;;17.31;97.73
11339;BME280;5724;42.684;23.252;2022-08-14T05:25:50;93797.19;;;17.33;97.90
11339;BME280;5724;42.684;23.252;2022-08-14T05:28:21;93801.16;;;17.32;97.11
11339;BME280;5724;42.684;23.252;2022-08-14T05:33:18;93795.47;;;17.42;96.59
11339;BME280;5724;42.684;23.252;2022-08-14T05:35:46;93781.81;;;17.32;95.99
11339;BME280;5724;42.684;23.252;2022-08-14T05:38:14;93796.63;;;17.45;96.72
11339;BME280;5724;42.684;23.252;2022-08-14T05:40:47;93800.81;;;17.57;96.60
11339;BME280;5724;42.684;23.252;2022-08-14T05:43:14;93800.16;;;17.45;97.87
11339;BME280;5724;42.684;23.252;2022-08-14T05:45:41;93794.72;;;17.42;98.59
11339;BME280;5724;42.684;23.252;2022-08-14T05:48:07;93794.34;;;17.40;100.00
11339;BME280;5724;42.684;23.252;2022-08-14T05:50:33;93799.50;;;17.38;99.35
11339;BME280;5724;42.684;23.252;2022-08-14T05:52:59;93805.91;;;17.31;98.38
11339;BME280;5724;42.684;23.252;2022-08-14T05:55:25;93798.19;;;17.15;98.62
11339;BME280;5724;42.684;23.252;2022-08-14T05:57:57;93795.13;;;17.10;98.48
11339;BME280;5724;42.684;23.252;2022-08-14T06:00:29;93792.16;;;16.94;99.37
11339;BME280;5724;42.684;23.252;2022-08-14T06:02:59;93802.44;;;16.93;99.10
11339;BME280;5724;42.684;23.252;2022-08-14T06:05:26;93796.19;;;16.89;100.00
11339;BME280;5724;42.684;23.252;2022-08-14T06:07:52;93798.53;;;16.87;99.84
11339;BME280;5724;42.684;23.252;2022-08-14T06:10:17;93801.59;;;16.96;100.00
11339;BME280;5724;42.684;23.252;2022-08-14T06:12:43;93794.41;;;16.72;100.00
11339;BME280;5724;42.684;23.252;2022-08-14T06:15:10;93801.13;;;16.71;100.00
11339;BME280;5724;42.684;23.252;2022-08-14T06:17:47;93808.09;;;16.79;100.00
11339;BME280;5724;42.684;23.252;2022-08-14T06:20:13;93803.53;;;16.62;100.00
11339;BME280;5724;42.684;23.252;2022-08-14T06:22:40;93812.72;;;16.51;100.00
11339;BME280;5724;42.684;23.252;2022-08-14T06:25:07;93812.31;;;16.53;100.00
11339;BME280;5724;42.684;23.252;2022-08-14T06:27:40;93809.53;;;16.53;100.00
11339;BME280;5724;42.684;23.252;2022-08-14T06:30:08;93817.75;;;16.60;100.00
11339;BME280;5724;42.684;23.252;2022-08-14T06:32:34;93810.66;;;16.59;100.00
11339;BME280;5724;42.684;23.252;2022-08-14T06:35:01;93818.06;;;16.69;100.00
11339;BME280;5724;42.684;23.252;2022-08-14T06:37:26;93809.78;;;16.66;100.00
11339;BME280;5724;42.684;23.252;2022-08-14T06:39:52;93809.06;;;16.62;100.00
11339;BME280;5724;42.684;23.252;2022-08-14T06:42:18;93814.91;;;16.71;99.69
11339;BME280;5724;42.684;23.252;2022-08-14T06:44:43;93821.44;;;16.84;99.30
11339;BME280;5724;42.684;23.252;2022-08-14T06:47:09;93814.91;;;16.67;97.75
11339;BME280;5724;42.684;23.252;2022-08-14T06:49:35;93819.88;;;16.83;99.57
11339;BME280;5724;42.684;23.252;2022-08-14T06:52:02;93819.81;;;16.90;100.00
11339;BME280;5724;42.684;23.252;2022-08-14T06:54:29;93788.84;;;16.75;100.00
11339;BME280;5724;42.684;23.252;2022-08-14T06:56:55;93816.47;;;17.06;99.86
11339;BME280;5724;42.684;23.252;2022-08-14T06:59:21;93818.78;;;17.11;99.47
11339;BME280;5724;42.684;23.252;2022-08-14T07:01:47;93821.38;;;16.91;97.18
11339;BME280;5724;42.684;23.252;2022-08-14T07:04:31;93824.56;;;16.86;97.17
11339;BME280;5724;42.684;23.252;2022-08-14T07:07:15;93819.84;;;16.86;96.74
11339;BME280;5724;42.684;23.252;2022-08-14T07:09:41;93816.38;;;16.79;99.19
11339;BME280;5724;42.684;23.252;2022-08-14T07:12:07;93815.38;;;16.58;100.00
11339;BME280;5724;42.684;23.252;2022-08-14T07:14:33;93810.38;;;16.46;100.00
11339;BME280;5724;42.684;23.252;2022-08-14T07:16:58;93818.72;;;16.39;100.00
11339;BME280;5724;42.684;23.252;2022-08-14T07:19:24;93815.53;;;16.44;100.00
11339;BME280;5724;42.684;23.252;2022-08-14T07:21:49;93823.41;;;16.46;100.00
11339;BME280;5724;42.684;23.252;2022-08-14T07:24:15;93813.41;;;16.59;100.00
11339;BME280;5724;42.684;23.252;2022-08-14T07:26:41;93823.19;;;16.71;100.00
11339;BME280;5724;42.684;23.252;2022-08-14T07:29:07;93822.38;;;16.67;100.00
11339;BME280;5724;42.684;23.252;2022-08-14T07:31:33;93815.28;;;16.28;100.00
11339;BME280;5724;42.684;23.252;2022-08-14T07:33:58;93809.44;;;16.22;100.00
11339;BME280;5724;42.684;23.252;2022-08-14T07:36:24;93829.22;;;16.10;100.00
11339;BME280;5724;42.684;23.252;2022-08-14T07:38:49;93831.03;;;16.31;100.00
11339;BME280;5724;42.684;23.252;2022-08-14T07:41:15;93828.44;;;16.54;100.00
11339;BME280;5724;42.684;23.252;2022-08-14T07:43:42;93831.97;;;16.55;99.49
11339;BME280;5724;42.684;23.252;2022-08-14T07:46:08;93827.19;;;16.63;91.50
11339;BME280;5724;42.684;23.252;2022-08-14T07:48:38;93833.34;;;16.77;87.29
11339;BME280;5724;42.684;23.252;2022-08-14T07:51:05;93836.19;;;17.04;87.95
11339;BME280;5724;42.684;23.252;2022-08-14T07:53:32;93830.28;;;17.36;89.78
11339;BME280;5724;42.684;23.252;2022-08-14T07:55:57;93832.91;;;17.47;89.94
11339;BME280;5724;42.684;23.252;2022-08-14T07:58:23;93834.63;;;17.64;90.77
11339;BME280;5724;42.684;23.252;2022-08-14T08:00:52;93839.44;;;17.60;90.89
11339;BME280;5724;42.684;23.252;2022-08-14T08:03:18;93833.44;;;17.38;89.10
11339;BME280;5724;42.684;23.252;2022-08-14T08:05:45;93845.47;;;17.21;90.38
11339;BME280;5724;42.684;23.252;2022-08-14T08:08:10;93838.75;;;17.22;89.47
11339;BME280;5724;42.684;23.252;2022-08-14T08:10:36;93828.78;;;17.32;89.32
11339;BME280;5724;42.684;23.252;2022-08-14T08:13:15;93835.69;;;17.47;87.41
11339;BME280;5724;42.684;23.252;2022-08-14T08:15:47;93826.81;;;17.59;86.05
11339;BME280;5724;42.684;23.252;2022-08-14T08:18:14;93830.41;;;17.56;86.14
11339;BME280;5724;42.684;23.252;2022-08-14T08:20:50;93835.47;;;17.61;84.20
11339;BME280;5724;42.684;23.252;2022-08-14T08:23:19;93834.75;;;17.57;82.13
11339;BME280;5724;42.684;23.252;2022-08-14T08:25:47;93836.31;;;17.58;82.84
11339;BME280;5724;42.684;23.252;2022-08-14T08:28:15;93823.72;;;17.57;83.99
11339;BME280;5724;42.684;23.252;2022-08-14T08:30:53;93830.88;;;17.51;86.22
11339;BME280;5724;42.684;23.252;2022-08-14T08:33:25;93819.28;;;17.33;89.07
11339;BME280;5724;42.684;23.252;2022-08-14T08:35:59;93826.66;;;17.12;92.07
11339;BME280;5724;42.684;23.252;2022-08-14T08:38:27;93824.59;;;17.16;93.59
11339;BME280;5724;42.684;23.252;2022-08-14T08:40:55;93828.06;;;17.24;92.41
11339;BME280;5724;42.684;23.252;2022-08-14T08:46:19;93823.97;;;17.36;91.09
11339;BME280;5724;42.684;23.252;2022-08-14T08:48:51;93823.25;;;17.32;90.43
11339;BME280;5724;42.684;23.252;2022-08-14T08:51:33;93823.31;;;17.28;88.53
11339;BME280;5724;42.684;23.252;2022-08-14T08:56:55;93822.75;;;17.40;88.28
11339;BME280;5724;42.684;23.252;2022-08-14T08:59:23;93817.63;;;17.69;89.47
11339;BME280;5724;42.684;23.252;2022-08-14T09:04:27;93815.13;;;18.29;87.95
11339;BME280;5724;42.684;23.252;2022-08-14T09:06:54;93817.09;;;18.52;86.27
11339;BME280;5724;42.684;23.252;2022-08-14T09:09:23;93806.81;;;18.76;84.92
11339;BME280;5724;42.684;23.252;2022-08-14T09:11:49;93812.72;;;18.98;82.83
11339;BME280;5724;42.684;23.252;2022-08-14T09:14:16;93810.47;;;18.93;82.34
11339;BME280;5724;42.684;23.252;2022-08-14T09:16:43;93810.25;;;19.03;81.23
11339;BME280;5724;42.684;23.252;2022-08-14T09:19:09;93810.81;;;18.95;79.67
11339;BME280;5724;42.684;23.252;2022-08-14T09:21:38;93800.94;;;18.94;81.72
11339;BME280;5724;42.684;23.252;2022-08-14T09:24:05;93797.88;;;18.88;82.02
11339;BME280;5724;42.684;23.252;2022-08-14T09:26:31;93802.84;;;19.16;82.28
11339;BME280;5724;42.684;23.252;2022-08-14T09:28:56;93805.06;;;19.25;79.95
11339;BME280;5724;42.684;23.252;2022-08-14T09:31:23;93797.28;;;19.36;79.08
11339;BME280;5724;42.684;23.252;2022-08-14T09:34:04;93803.13;;;19.62;78.87
11339;BME280;5724;42.684;23.252;2022-08-14T09:47:18;93801.94;;;19.23;80.91
11339;BME280;5724;42.684;23.252;2022-08-14T09:49:45;93800.69;;;19.44;81.05
11339;BME280;5724;42.684;23.252;2022-08-14T09:52:13;93804.19;;;19.28;80.48
11339;BME280;5724;42.684;23.252;2022-08-14T09:54:47;93793.88;;;19.29;80.02
11339;BME280;5724;42.684;23.252;2022-08-14T09:57:29;93804.38;;;19.57;77.72
11339;BME280;5724;42.684;23.252;2022-08-14T09:59:55;93799.50;;;19.81;79.09
11339;BME280;5724;42.684;23.252;2022-08-14T10:02:23;93795.09;;;20.16;77.72
11339;BME280;5724;42.684;23.252;2022-08-14T10:07:35;93797.91;;;20.00;75.47
11339;BME280;5724;42.684;23.252;2022-08-14T10:10:02;93805.34;;;20.19;75.74
11339;BME280;5724;42.684;23.252;2022-08-14T10:12:46;93804.31;;;20.29;74.83
11339;BME280;5724;42.684;23.252;2022-08-14T10:15:20;93800.75;;;20.13;74.96
11339;BME280;5724;42.684;23.252;2022-08-14T10:17:47;93801.38;;;20.20;74.80
11339;BME280;5724;42.684;23.252;2022-08-14T10:20:17;93781.69;;;20.15;76.29
11339;BME280;5724;42.684;23.252;2022-08-14T10:22:47;93803.13;;;20.47;76.13
11339;BME280;5724;42.684;23.252;2022-08-14T10:25:15;93798.84;;;20.42;74.37
11339;BME280;5724;42.684;23.252;2022-08-14T10:27:42;93800.56;;;20.36;74.76
11339;BME280;5724;42.684;23.252;2022-08-14T10:30:12;93796.59;;;20.05;75.25
11339;BME280;5724;42.684;23.252;2022-08-14T10:32:43;93798.22;;;19.86;75.33
11339;BME280;5724;42.684;23.252;2022-08-14T10:35:11;93780.22;;;19.58;76.39
11339;BME280;5724;42.684;23.252;2022-08-14T10:37:44;93791.03;;;19.88;75.49
11339;BME280;5724;42.684;23.252;2022-08-14T10:40:15;93782.97;;;19.94;75.19
11339;BME280;5724;42.684;23.252;2022-08-14T10:42:42;93777.19;;;20.21;74.88
11339;BME280;5724;42.684;23.252;2022-08-14T10:45:21;93778.22;;;20.27;73.55
11339;BME280;5724;42.684;23.252;2022-08-14T10:47:48;93770.59;;;20.47;73.77
11339;BME280;5724;42.684;23.252;2022-08-14T10:50:14;93763.09;;;20.61;72.48
11339;BME280;5724;42.684;23.252;2022-08-14T10:52:41;93756.13;;;20.85;70.70
11339;BME280;5724;42.684;23.252;2022-08-14T10:55:10;93754.69;;;20.93;69.60
11339;BME280;5724;42.684;23.252;2022-08-14T10:57:53;93759.75;;;20.82;70.40
11339;BME280;5724;42.684;23.252;2022-08-14T11:00:21;93756.94;;;20.69;70.35
11339;BME280;5724;42.684;23.252;2022-08-14T11:05:23;93747.56;;;20.92;70.51
11339;BME280;5724;42.684;23.252;2022-08-14T11:10:19;93737.63;;;21.20;68.48
11339;BME280;5724;42.684;23.252;2022-08-14T11:12:50;93733.84;;;21.56;67.25
11339;BME280;5724;42.684;23.252;2022-08-14T11:15:21;93731.94;;;21.65;65.72
11339;BME280;5724;42.684;23.252;2022-08-14T11:17:49;93723.94;;;21.00;67.23
11339;BME280;5724;42.684;23.252;2022-08-14T11:20:20;93726.31;;;21.14;69.24
11339;BME280;5724;42.684;23.252;2022-08-14T11:22:50;93713.41;;;21.21;69.52
11339;BME280;5724;42.684;23.252;2022-08-14T11:25:17;93719.94;;;21.68;67.21
11339;BME280;5724;42.684;23.252;2022-08-14T11:27:45;93715.25;;;22.04;67.04
11339;BME280;5724;42.684;23.252;2022-08-14T11:30:26;93727.25;;;22.13;64.43
11339;BME280;5724;42.684;23.252;2022-08-14T11:32:52;93729.69;;;21.98;64.14
11339;BME280;5724;42.684;23.252;2022-08-14T11:35:26;93723.50;;;21.56;63.47
11339;BME280;5724;42.684;23.252;2022-08-14T11:37:57;93726.13;;;21.98;62.79
11339;BME280;5724;42.684;23.252;2022-08-14T11:40:26;93731.47;;;22.05;62.64
11339;BME280;5724;42.684;23.252;2022-08-14T11:42:53;93735.94;;;21.90;62.61
11339;BME280;5724;42.684;23.252;2022-08-14T11:45:28;93731.94;;;22.16;62.40
11339;BME280;5724;42.684;23.252;2022-08-14T11:48:00;93733.03;;;22.32;62.50
11339;BME280;5724;42.684;23.252;2022-08-14T11:50:37;93732.84;;;22.48;62.12
11339;BME280;5724;42.684;23.252;2022-08-14T11:53:05;93727.50;;;22.53;61.84
11339;BME280;5724;42.684;23.252;2022-08-14T11:55:36;93729.34;;;22.35;62.26
11339;BME280;5724;42.684;23.252;2022-08-14T11:58:07;93720.75;;;22.29;61.69
11339;BME280;5724;42.684;23.252;2022-08-14T12:00:45;93715.53;;;22.31;63.19
11339;BME280;5724;42.684;23.252;2022-08-14T12:03:11;93717.41;;;22.34;63.79
11339;BME280;5724;42.684;23.252;2022-08-14T12:05:38;93712.50;;;22.38;63.34
11339;BME280;5724;42.684;23.252;2022-08-14T12:08:07;93715.09;;;22.33;62.79
11339;BME280;5724;42.684;23.252;2022-08-14T12:10:33;93720.22;;;22.34;63.52
11339;BME280;5724;42.684;23.252;2022-08-14T12:13:16;93728.34;;;22.28;64.01
11339;BME280;5724;42.684;23.252;2022-08-14T12:15:45;93717.78;;;22.23;63.80
11339;BME280;5724;42.684;23.252;2022-08-14T12:18:14;93718.44;;;22.27;64.22
11339;BME280;5724;42.684;23.252;2022-08-14T12:20:41;93720.44;;;22.27;63.15
11339;BME280;5724;42.684;23.252;2022-08-14T12:23:21;93716.56;;;22.24;63.81
11339;BME280;5724;42.684;23.252;2022-08-14T12:25:48;93701.91;;;22.11;63.14
11339;BME280;5724;42.684;23.252;2022-08-14T12:28:14;93695.66;;;22.20;63.29
11339;BME280;5724;42.684;23.252;2022-08-14T12:30:44;93695.19;;;22.21;64.62
11339;BME280;5724;42.684;23.252;2022-08-14T12:33:30;93696.06;;;22.18;65.11
11339;BME280;5724;42.684;23.252;2022-08-14T12:36:02;93701.03;;;22.36;64.61
11339;BME280;5724;42.684;23.252;2022-08-14T12:38:39;93693.84;;;22.26;64.96
11339;BME280;5724;42.684;23.252;2022-08-14T12:41:13;93692.13;;;22.41;65.83
11339;BME280;5724;42.684;23.252;2022-08-14T12:44:04;93696.53;;;22.17;66.49
11339;BME280;5724;42.684;23.252;2022-08-14T12:46:40;93699.63;;;22.19;67.25
11339;BME280;5724;42.684;23.252;2022-08-14T12:49:14;93697.06;;;22.24;67.04
11339;BME280;5724;42.684;23.252;2022-08-14T12:51:42;93702.19;;;22.26;68.21
11339;BME280;5724;42.684;23.252;2022-08-14T12:54:16;93694.06;;;22.32;68.61
11339;BME280;5724;42.684;23.252;2022-08-14T12:56:42;93691.00;;;22.39;69.97
11339;BME280;5724;42.684;23.252;2022-08-14T12:59:08;93687.50;;;22.25;69.52
11339;BME280;5724;42.684;23.252;2022-08-14T13:01:34;93694.63;;;22.26;70.54
11339;BME280;5724;42.684;23.252;2022-08-14T13:04:11;93682.84;;;21.97;71.58
11339;BME280;5724;42.684;23.252;2022-08-14T13:06:39;93686.50;;;22.19;71.15
11339;BME280;5724;42.684;23.252;2022-08-14T13:09:07;93677.16;;;22.26;70.62
11339;BME280;5724;42.684;23.252;2022-08-14T13:11:48;93680.69;;;22.26;68.95
11339;BME280;5724;42.684;23.252;2022-08-14T13:14:20;93675.03;;;22.30;69.28
11339;BME280;5724;42.684;23.252;2022-08-14T13:16:48;93677.16;;;22.26;67.74
11339;BME280;5724;42.684;23.252;2022-08-14T13:19:17;93673.19;;;22.14;69.04
11339;BME280;5724;42.684;23.252;2022-08-14T13:21:48;93669.94;;;22.16;68.70
11339;BME280;5724;42.684;23.252;2022-08-14T13:24:17;93673.13;;;22.27;68.00
11339;BME280;5724;42.684;23.252;2022-08-14T13:26:48;93660.56;;;22.22;67.93
11339;BME280;5724;42.684;23.252;2022-08-14T13:29:20;93656.59;;;21.98;67.65
11339;BME280;5724;42.684;23.252;2022-08-14T13:31:50;93657.81;;;21.97;68.04
11339;BME280;5724;42.684;23.252;2022-08-14T13:34:21;93658.81;;;22.03;67.75
11339;BME280;5724;42.684;23.252;2022-08-14T13:36:46;93644.34;;;22.08;67.80